createdAt,value
2023-05-15T00:00:49.086Z,9.07
2023-05-15T00:03:16.292Z,9.18
2023-05-15T00:05:43.048Z,9.23
2023-05-15T00:08:09.510Z,9.18
2023-05-15T00:10:35.964Z,9.11
2023-05-15T00:13:02.528Z,8.95
2023-05-15T00:15:29.028Z,8.93
2023-05-15T00:17:55.657Z,8.78
2023-05-15T00:20:22.218Z,8.57
2023-05-15T00:22:49.206Z,8.57
2023-05-15T00:25:15.696Z,8.60
2023-05-15T00:27:42.176Z,8.53
2023-05-15T00:30:09.258Z,8.57
2023-05-15T00:32:35.780Z,8.64
2023-05-15T00:35:02.452Z,8.72
2023-05-15T00:37:30.519Z,8.72
2023-05-15T00:39:57.056Z,8.68
2023-05-15T00:42:25.589Z,8.63
2023-05-15T00:44:53.737Z,8.60
2023-05-15T00:47:21.066Z,8.58
2023-05-15T00:49:49.228Z,8.63
2023-05-15T00:52:15.826Z,8.65
2023-05-15T00:54:42.327Z,8.50
2023-05-15T00:57:09.616Z,8.49
2023-05-15T00:59:37.489Z,8.70
2023-05-15T01:02:04.264Z,8.59
2023-05-15T01:04:31.237Z,8.60
2023-05-15T01:06:57.930Z,8.63
2023-05-15T01:09:25.600Z,8.53
2023-05-15T01:11:55.053Z,8.49
2023-05-15T01:14:21.631Z,8.53
2023-05-15T01:21:17.172Z,8.77
2023-05-15T01:24:02.420Z,8.57
2023-05-15T01:26:44.038Z,8.57
2023-05-15T01:29:13.470Z,8.47
2023-05-15T01:31:42.776Z,8.50
2023-05-15T01:34:11.416Z,8.36
2023-05-15T01:36:46.255Z,8.41
2023-05-15T01:39:18.011Z,8.51
2023-05-15T01:41:54.285Z,8.35
2023-05-15T01:44:34.257Z,8.30
2023-05-15T01:47:08.596Z,8.29
2023-05-15T01:49:36.018Z,8.30
2023-05-15T01:52:12.408Z,8.30
2023-05-15T01:54:40.018Z,8.23
2023-05-15T01:57:08.893Z,8.46
2023-05-15T01:59:36.977Z,8.58
2023-05-15T02:02:05.496Z,8.71
2023-05-15T02:04:33.779Z,8.59
2023-05-15T02:07:02.914Z,8.62
2023-05-15T02:09:30.964Z,8.41
2023-05-15T02:11:57.909Z,8.31
2023-05-15T02:14:26.131Z,8.32
2023-05-15T02:16:52.640Z,8.42
2023-05-15T02:19:19.309Z,8.30
2023-05-15T02:21:45.914Z,8.44
2023-05-15T02:24:13.056Z,8.36
2023-05-15T02:27:04.538Z,8.29
2023-05-15T02:29:50.570Z,8.16
2023-05-15T02:32:29.783Z,8.40
2023-05-15T02:35:33.782Z,8.30
2023-05-15T02:38:06.030Z,8.22
2023-05-15T02:40:36.231Z,8.18
2023-05-15T02:43:06.295Z,8.21
2023-05-15T02:45:34.339Z,8.11
2023-05-15T02:48:02.257Z,8.32
2023-05-15T02:50:29.197Z,8.34
2023-05-15T02:53:05.262Z,8.47
2023-05-15T02:55:31.835Z,8.26
2023-05-15T02:57:58.877Z,8.35
2023-05-15T03:00:25.559Z,8.15
2023-05-15T03:02:52.080Z,8.03
2023-05-15T03:05:18.907Z,7.90
2023-05-15T03:07:45.346Z,8.03
2023-05-15T03:10:11.851Z,7.98
2023-05-15T03:12:39.366Z,7.88
2023-05-15T03:15:07.130Z,7.73
2023-05-15T03:17:33.764Z,7.65
2023-05-15T03:20:00.513Z,7.73
2023-05-15T03:22:26.964Z,7.76
2023-05-15T03:24:53.420Z,7.83
2023-05-15T03:27:19.847Z,7.99
2023-05-15T03:29:46.317Z,7.83
2023-05-15T03:32:12.744Z,7.72
2023-05-15T03:34:40.970Z,7.68
2023-05-15T03:37:07.618Z,7.55
2023-05-15T03:39:34.336Z,7.76
2023-05-15T03:42:00.782Z,7.99
2023-05-15T03:44:27.212Z,8.08
2023-05-15T03:46:53.671Z,7.82
2023-05-15T03:49:20.124Z,7.94
2023-05-15T03:51:46.565Z,8.11
2023-05-15T03:54:13.617Z,8.15
2023-05-15T03:56:40.188Z,7.95
2023-05-15T03:59:06.743Z,8.04
2023-05-15T04:01:35.745Z,8.17
2023-05-15T04:04:05.697Z,8.01
2023-05-15T04:06:32.120Z,7.95
2023-05-15T04:08:58.557Z,8.11
2023-05-15T04:11:25.027Z,8.17
2023-05-15T04:13:51.406Z,8.04
2023-05-15T04:16:18.028Z,7.99
2023-05-15T04:18:44.489Z,8.08
2023-05-15T04:21:10.918Z,8.25
2023-05-15T04:23:37.347Z,8.40
2023-05-15T04:26:03.805Z,8.41
2023-05-15T04:28:30.604Z,8.44
2023-05-15T04:30:58.648Z,8.19
2023-05-15T04:33:25.602Z,8.30
2023-05-15T04:35:52.167Z,8.42
2023-05-15T04:38:18.951Z,8.46
2023-05-15T04:40:45.650Z,8.41
2023-05-15T04:43:12.039Z,8.68
2023-05-15T04:45:38.480Z,8.74
2023-05-15T04:48:05.229Z,8.41
2023-05-15T04:50:31.687Z,8.36
2023-05-15T04:52:58.123Z,8.52
2023-05-15T04:55:24.641Z,8.59
2023-05-15T04:57:51.356Z,8.81
2023-05-15T05:00:17.873Z,8.81
2023-05-15T05:02:44.379Z,8.70
2023-05-15T05:05:11.204Z,8.91
2023-05-15T05:07:37.616Z,8.88
2023-05-15T05:10:05.339Z,9.03
2023-05-15T05:12:31.778Z,9.18
2023-05-15T05:14:58.207Z,9.38
2023-05-15T05:17:24.772Z,9.78
2023-05-15T05:19:51.232Z,10.36
2023-05-15T05:22:17.647Z,10.30
2023-05-15T05:24:44.049Z,10.91
2023-05-15T05:27:10.926Z,10.84
2023-05-15T05:29:37.400Z,10.35
2023-05-15T05:32:04.016Z,10.82
2023-05-15T05:34:30.430Z,12.30
2023-05-15T05:36:56.827Z,12.35
2023-05-15T05:39:23.406Z,11.31
2023-05-15T05:41:49.877Z,11.24
2023-05-15T05:44:16.571Z,12.84
2023-05-15T05:46:43.027Z,12.91
2023-05-15T05:49:09.482Z,12.54
2023-05-15T05:51:36.971Z,12.69
2023-05-15T05:54:03.930Z,12.96
2023-05-15T05:56:30.562Z,14.08
2023-05-15T05:58:57.159Z,15.19
2023-05-15T06:01:23.621Z,15.98
2023-05-15T06:03:50.105Z,16.69
2023-05-15T06:06:16.573Z,16.77
2023-05-15T06:08:43.180Z,16.35
2023-05-15T06:11:09.574Z,16.62
2023-05-15T06:13:36.052Z,16.93
2023-05-15T06:16:02.500Z,16.72
2023-05-15T06:18:28.957Z,17.04
2023-05-15T06:20:55.503Z,18.27
2023-05-15T06:23:23.713Z,17.80
2023-05-15T06:25:50.847Z,18.27
2023-05-15T06:28:17.249Z,17.82
2023-05-15T06:30:44.120Z,17.61
2023-05-15T06:33:10.702Z,17.50
2023-05-15T06:35:37.322Z,18.81
2023-05-15T06:38:03.952Z,19.39
2023-05-15T06:40:30.462Z,19.54
2023-05-15T06:42:56.857Z,20.22
2023-05-15T06:45:23.454Z,21.10
2023-05-15T06:47:50.028Z,21.34
2023-05-15T06:50:16.495Z,20.88
2023-05-15T06:52:42.871Z,21.16
2023-05-15T06:55:09.448Z,21.39
2023-05-15T06:57:35.864Z,21.01
2023-05-15T07:00:02.434Z,21.85
2023-05-15T07:02:29.022Z,21.37
2023-05-15T07:04:56.148Z,21.36
2023-05-15T07:07:22.664Z,21.58
2023-05-15T07:09:50.286Z,22.33
2023-05-15T07:12:16.760Z,22.10
2023-05-15T07:14:43.234Z,22.62
2023-05-15T07:17:09.908Z,22.99
2023-05-15T07:19:36.556Z,22.32
2023-05-15T07:22:03.562Z,22.75
2023-05-15T07:24:30.336Z,22.18
2023-05-15T07:26:58.587Z,21.91
2023-05-15T07:29:26.108Z,21.79
2023-05-15T07:31:52.999Z,23.66
2023-05-15T07:34:19.504Z,23.66
2023-05-15T07:36:45.986Z,22.72
2023-05-15T07:39:13.139Z,23.16
2023-05-15T07:41:39.619Z,23.94
2023-05-15T07:44:06.371Z,22.90
2023-05-15T07:46:33.670Z,22.53
2023-05-15T07:49:00.205Z,22.65
2023-05-15T07:51:26.686Z,22.15
2023-05-15T07:53:53.129Z,20.76
2023-05-15T07:56:19.604Z,21.13
2023-05-15T07:58:46.057Z,21.43
2023-05-15T08:01:12.614Z,21.26
2023-05-15T08:03:39.117Z,21.02
2023-05-15T08:06:07.287Z,21.08
2023-05-15T08:08:34.131Z,20.80
2023-05-15T08:11:00.568Z,21.07
2023-05-15T08:13:27.182Z,21.16
2023-05-15T08:15:53.675Z,21.20
2023-05-15T08:18:20.130Z,21.39
2023-05-15T08:20:46.613Z,20.96
2023-05-15T08:23:15.865Z,20.65
2023-05-15T08:25:42.316Z,20.54
2023-05-15T08:28:08.919Z,20.48
2023-05-15T08:30:36.058Z,20.17
2023-05-15T08:33:02.554Z,19.20
2023-05-15T08:35:29.116Z,18.63
2023-05-15T08:37:55.578Z,18.39
2023-05-15T08:40:34.392Z,17.91
2023-05-15T08:43:13.817Z,18.45
2023-05-15T08:45:41.407Z,18.34
2023-05-15T08:48:11.653Z,18.35
2023-05-15T08:50:40.125Z,18.46
2023-05-15T08:53:07.317Z,18.88
2023-05-15T08:55:34.032Z,19.67
2023-05-15T08:58:00.845Z,19.72
2023-05-15T09:00:28.607Z,19.26
2023-05-15T09:02:55.207Z,19.39
2023-05-15T09:05:21.747Z,20.06
2023-05-15T09:07:49.198Z,20.60
2023-05-15T09:10:16.291Z,21.20
2023-05-15T09:12:44.511Z,21.17
2023-05-15T09:15:21.733Z,21.53
2023-05-15T09:17:48.895Z,21.69
2023-05-15T09:20:29.255Z,22.44
2023-05-15T09:22:57.147Z,22.19
2023-05-15T09:25:38.185Z,21.73
2023-05-15T09:28:30.172Z,21.00
2023-05-15T09:31:01.874Z,20.63
2023-05-15T09:33:31.650Z,20.06
2023-05-15T09:35:58.222Z,20.09
2023-05-15T09:38:26.014Z,20.42
2023-05-15T09:41:04.749Z,20.04
2023-05-15T09:43:36.495Z,20.02
2023-05-15T09:46:03.376Z,20.08
2023-05-15T09:48:31.205Z,19.90
2023-05-15T09:50:58.388Z,19.90
2023-05-15T09:53:25.255Z,19.89
2023-05-15T09:55:53.633Z,20.00
2023-05-15T09:58:20.161Z,20.08
2023-05-15T10:00:49.560Z,19.92
2023-05-15T10:03:19.598Z,19.72
2023-05-15T10:05:46.534Z,19.97
2023-05-15T10:08:15.009Z,20.18
2023-05-15T10:10:41.935Z,20.35
2023-05-15T10:13:09.999Z,20.36
2023-05-15T10:15:38.075Z,20.21
2023-05-15T10:18:05.082Z,19.39
2023-05-15T10:20:35.589Z,19.01
2023-05-15T10:23:04.720Z,19.40
2023-05-15T10:25:58.958Z,19.87
2023-05-15T10:28:27.052Z,19.45
2023-05-15T10:30:55.894Z,19.66
2023-05-15T10:33:23.866Z,19.99
2023-05-15T10:35:52.138Z,20.22
2023-05-15T10:38:19.926Z,20.38
2023-05-15T10:40:47.207Z,19.91
2023-05-15T10:43:14.364Z,19.29
2023-05-15T10:45:41.627Z,19.85
2023-05-15T10:48:12.195Z,20.03
2023-05-15T10:50:39.002Z,20.38
2023-05-15T10:53:06.180Z,20.91
2023-05-15T10:55:32.808Z,20.71
2023-05-15T10:57:59.596Z,20.67
2023-05-15T11:00:27.869Z,20.49
2023-05-15T11:02:56.999Z,21.23
2023-05-15T11:05:24.432Z,21.32
2023-05-15T11:08:15.912Z,20.60
2023-05-15T11:10:42.428Z,20.01
2023-05-15T11:13:08.999Z,19.70
2023-05-15T11:15:46.535Z,19.54
2023-05-15T11:18:13.221Z,19.02
2023-05-15T11:20:52.076Z,18.53
2023-05-15T11:23:22.403Z,18.07
2023-05-15T11:25:57.192Z,17.96
2023-05-15T11:28:25.267Z,18.28
2023-05-15T11:30:53.509Z,18.23
2023-05-15T11:33:20.979Z,18.10
2023-05-15T11:35:48.478Z,18.42
2023-05-15T11:38:20.154Z,18.61
2023-05-15T11:40:48.150Z,18.60
2023-05-15T11:43:36.494Z,18.78
2023-05-15T11:46:02.944Z,19.00
2023-05-15T11:48:33.427Z,19.16
2023-05-15T11:51:04.244Z,19.86
2023-05-15T11:53:32.223Z,20.42
2023-05-15T11:55:59.103Z,22.07
2023-05-15T11:58:26.289Z,23.12
2023-05-15T12:00:53.726Z,22.33
2023-05-15T12:03:38.734Z,21.39
2023-05-15T12:06:06.195Z,21.14
2023-05-15T12:08:34.289Z,21.96
2023-05-15T12:11:01.514Z,22.45
2023-05-15T12:13:28.318Z,23.71
2023-05-15T12:15:55.866Z,24.82
2023-05-15T12:18:22.924Z,23.75
2023-05-15T12:20:52.912Z,23.23
2023-05-15T12:23:22.336Z,25.58
2023-05-15T12:25:50.787Z,26.22
2023-05-15T12:28:17.693Z,27.16
2023-05-15T12:30:44.825Z,27.05
2023-05-15T12:33:12.881Z,25.27
2023-05-15T12:35:44.737Z,24.04
2023-05-15T12:38:17.763Z,24.16
2023-05-15T12:40:49.588Z,24.52
2023-05-15T12:43:16.009Z,25.49
2023-05-15T12:45:42.556Z,25.14
2023-05-15T12:48:14.927Z,24.76
2023-05-15T12:50:44.698Z,24.01
2023-05-15T12:53:14.322Z,23.61
2023-05-15T12:55:41.181Z,23.20
2023-05-15T12:58:10.385Z,23.76
2023-05-15T13:00:39.447Z,23.50
2023-05-15T13:03:09.761Z,23.15
2023-05-15T13:05:37.260Z,23.23
2023-05-15T13:08:06.044Z,23.18
2023-05-15T13:10:34.354Z,22.53
2023-05-15T13:13:00.956Z,22.33
2023-05-15T13:15:44.682Z,22.30
2023-05-15T13:18:16.698Z,21.60
2023-05-15T13:20:43.961Z,20.52
2023-05-15T13:23:16.015Z,19.89
2023-05-15T13:25:43.051Z,19.47
2023-05-15T13:28:10.832Z,19.20
2023-05-15T13:30:46.931Z,19.00
2023-05-15T13:33:13.520Z,19.01
2023-05-15T13:35:41.092Z,18.71
2023-05-15T13:38:10.385Z,18.13
2023-05-15T13:40:38.345Z,17.30
2023-05-15T13:43:06.506Z,16.57
2023-05-15T13:45:33.368Z,16.24
2023-05-15T13:47:59.902Z,16.03
2023-05-15T13:50:26.751Z,16.09
2023-05-15T13:52:54.391Z,16.05
2023-05-15T13:55:23.007Z,16.12
2023-05-15T13:57:49.822Z,16.28
2023-05-15T14:00:17.269Z,16.46
2023-05-15T14:02:44.623Z,16.60
2023-05-15T14:05:12.839Z,16.56
2023-05-15T14:07:39.873Z,16.68
2023-05-15T14:10:07.137Z,16.68
2023-05-15T14:12:33.701Z,16.77
2023-05-15T14:15:01.004Z,17.24
2023-05-15T14:17:28.388Z,17.46
2023-05-15T14:19:54.930Z,17.58
2023-05-15T14:22:24.601Z,17.65
2023-05-15T14:24:52.198Z,17.71
2023-05-15T14:27:18.642Z,17.49
2023-05-15T14:29:45.169Z,17.31
2023-05-15T14:32:11.630Z,16.93
2023-05-15T14:34:38.159Z,16.71
2023-05-15T14:37:04.802Z,16.54
2023-05-15T14:39:31.828Z,16.37
2023-05-15T14:41:58.426Z,16.23
2023-05-15T14:44:24.882Z,16.18
2023-05-15T14:47:08.426Z,15.96
2023-05-15T14:49:35.991Z,15.80
2023-05-15T14:52:03.709Z,15.60
2023-05-15T14:54:30.209Z,15.42
2023-05-15T14:56:57.651Z,15.58
2023-05-15T14:59:25.305Z,15.51
2023-05-15T15:01:51.874Z,15.50
2023-05-15T15:04:18.375Z,15.59
2023-05-15T15:06:44.974Z,15.57
2023-05-15T15:09:11.535Z,15.31
2023-05-15T15:11:37.969Z,15.28
2023-05-15T15:14:04.476Z,15.33
2023-05-15T15:16:31.080Z,15.24
2023-05-15T15:18:57.616Z,15.13
2023-05-15T15:21:24.189Z,15.40
2023-05-15T15:23:50.962Z,15.74
2023-05-15T15:26:17.417Z,16.00
2023-05-15T15:28:43.847Z,15.97
2023-05-15T15:31:10.704Z,16.08
2023-05-15T15:33:37.383Z,15.92
2023-05-15T15:36:04.058Z,15.57
2023-05-15T15:38:30.551Z,16.07
2023-05-15T15:40:56.963Z,16.07
2023-05-15T15:43:23.369Z,15.69
2023-05-15T15:45:49.827Z,16.01
2023-05-15T15:48:16.303Z,16.05
2023-05-15T15:50:42.735Z,16.00
2023-05-15T15:53:09.157Z,15.58
2023-05-15T15:55:35.556Z,15.58
2023-05-15T15:58:01.970Z,15.70
2023-05-15T16:00:28.426Z,15.94
2023-05-15T16:02:54.942Z,16.02
2023-05-15T16:05:21.383Z,16.14
2023-05-15T16:07:47.882Z,15.72
2023-05-15T16:10:14.410Z,15.38
2023-05-15T16:12:42.160Z,14.85
2023-05-15T16:15:21.504Z,14.50
2023-05-15T16:17:51.361Z,14.48
2023-05-15T16:20:17.939Z,14.36
2023-05-15T16:22:44.503Z,14.10
2023-05-15T16:25:10.970Z,14.17
2023-05-15T16:27:37.454Z,14.35
2023-05-15T16:30:04.133Z,14.25
2023-05-15T16:32:30.800Z,14.11
2023-05-15T16:34:57.527Z,14.01
2023-05-15T16:37:23.960Z,13.99
2023-05-15T16:39:50.447Z,14.01
2023-05-15T16:42:16.884Z,14.08
2023-05-15T16:44:43.320Z,13.88
2023-05-15T16:47:09.724Z,13.85
2023-05-15T16:49:36.151Z,13.92
2023-05-15T16:52:02.554Z,13.83
2023-05-15T16:54:28.959Z,13.78
2023-05-15T16:56:55.877Z,13.84
2023-05-15T16:59:22.357Z,13.99
2023-05-15T17:01:48.844Z,13.91
2023-05-15T17:04:15.309Z,13.80
2023-05-15T17:06:41.718Z,13.82
2023-05-15T17:09:08.119Z,13.79
2023-05-15T17:11:34.647Z,13.77
2023-05-15T17:14:01.502Z,13.77
2023-05-15T17:16:28.133Z,13.82
2023-05-15T17:18:54.655Z,13.72
2023-05-15T17:21:21.120Z,13.59
2023-05-15T17:23:47.524Z,13.38
2023-05-15T17:26:13.969Z,13.44
2023-05-15T17:28:40.473Z,13.44
2023-05-15T17:31:10.702Z,13.43
2023-05-15T17:33:37.127Z,13.24
2023-05-15T17:36:03.840Z,13.28
2023-05-15T17:38:30.300Z,13.32
2023-05-15T17:40:56.745Z,13.44
2023-05-15T17:43:23.141Z,13.40
2023-05-15T17:45:49.636Z,13.53
2023-05-15T17:48:16.130Z,13.50
2023-05-15T17:50:42.544Z,13.50
2023-05-15T17:53:08.950Z,13.17
2023-05-15T17:55:35.367Z,13.34
2023-05-15T17:58:01.894Z,13.43
2023-05-15T18:00:28.328Z,13.21
2023-05-15T18:02:54.839Z,13.20
2023-05-15T18:05:21.434Z,13.00
2023-05-15T18:07:48.164Z,13.06
2023-05-15T18:10:14.747Z,12.86
2023-05-15T18:12:41.189Z,12.79
2023-05-15T18:15:08.093Z,12.76
2023-05-15T18:17:34.563Z,12.79
2023-05-15T18:20:01.700Z,12.82
2023-05-15T18:22:28.112Z,12.85
2023-05-15T18:24:54.506Z,12.81
2023-05-15T18:27:20.968Z,13.00
2023-05-15T18:29:47.398Z,13.03
2023-05-15T18:32:13.836Z,13.19
2023-05-15T18:34:40.271Z,13.18
2023-05-15T18:37:06.689Z,13.14
2023-05-15T18:39:33.100Z,12.85
2023-05-15T18:42:00.261Z,12.85
2023-05-15T18:44:26.675Z,12.83
2023-05-15T18:46:53.116Z,12.73
2023-05-15T18:49:19.610Z,12.75
2023-05-15T18:51:46.061Z,12.84
2023-05-15T18:54:12.533Z,12.64
2023-05-15T18:56:40.640Z,12.48
2023-05-15T18:59:08.936Z,12.40
2023-05-15T19:01:35.482Z,12.29
2023-05-15T19:04:03.605Z,12.28
2023-05-15T19:06:30.924Z,12.31
2023-05-15T19:08:57.361Z,12.36
2023-05-15T19:11:23.766Z,12.25
2023-05-15T19:13:50.284Z,12.08
2023-05-15T19:16:16.707Z,12.13
2023-05-15T19:18:43.263Z,12.02
2023-05-15T19:21:09.856Z,12.02
2023-05-15T19:23:36.297Z,12.02
2023-05-15T19:26:02.724Z,12.15
2023-05-15T19:28:29.160Z,12.02
2023-05-15T19:30:55.619Z,12.07
2023-05-15T19:33:22.164Z,12.07
2023-05-15T19:35:48.625Z,12.16
2023-05-15T19:38:15.616Z,12.10
2023-05-15T19:40:44.552Z,12.14
2023-05-15T19:43:11.372Z,12.04
2023-05-15T19:45:41.079Z,12.15
2023-05-15T19:48:07.589Z,12.14
2023-05-15T19:50:34.189Z,12.11
2023-05-15T19:53:00.876Z,11.96
2023-05-15T19:55:27.542Z,11.91
2023-05-15T19:57:55.907Z,11.92
2023-05-15T20:00:22.665Z,11.95
2023-05-15T20:02:49.127Z,11.84
2023-05-15T20:05:15.828Z,11.85
2023-05-15T20:07:43.091Z,11.85
2023-05-15T20:10:10.358Z,11.76
2023-05-15T20:12:37.136Z,11.80
2023-05-15T20:15:03.869Z,11.80
2023-05-15T20:17:30.541Z,11.75
2023-05-15T20:19:58.994Z,11.67
2023-05-15T20:22:25.431Z,11.61
2023-05-15T20:24:52.064Z,11.70
2023-05-15T20:27:18.560Z,11.66
2023-05-15T20:29:45.381Z,11.53
2023-05-15T20:32:13.168Z,11.51
2023-05-15T20:34:41.824Z,11.62
2023-05-15T20:37:09.018Z,11.53
2023-05-15T20:39:35.484Z,11.48
2023-05-15T20:42:01.975Z,11.37
2023-05-15T20:44:29.793Z,11.55
2023-05-15T20:46:56.679Z,11.63
2023-05-15T20:49:23.410Z,11.41
2023-05-15T20:51:50.025Z,11.47
2023-05-15T20:54:16.477Z,11.63
2023-05-15T20:56:43.013Z,11.48
2023-05-15T20:59:09.457Z,11.38
2023-05-15T21:01:36.353Z,11.41
2023-05-15T21:04:02.969Z,11.31
2023-05-15T21:06:29.464Z,11.43
2023-05-15T21:08:55.902Z,11.53
2023-05-15T21:11:22.819Z,11.68
2023-05-15T21:13:49.263Z,11.84
2023-05-15T21:16:15.777Z,11.88
2023-05-15T21:18:42.294Z,11.88
2023-05-15T21:21:08.792Z,11.92
2023-05-15T21:23:38.245Z,11.91
2023-05-15T21:26:05.231Z,11.97
2023-05-15T21:28:31.737Z,11.73
2023-05-15T21:30:58.384Z,11.71
2023-05-15T21:33:24.774Z,11.61
2023-05-15T21:35:51.480Z,11.52
2023-05-15T21:38:18.294Z,11.43
2023-05-15T21:40:44.896Z,11.55
2023-05-15T21:43:11.300Z,11.54
2023-05-15T21:45:37.699Z,11.26
2023-05-15T21:48:04.368Z,11.19
2023-05-15T21:50:30.852Z,11.22
2023-05-15T21:52:57.394Z,11.34
2023-05-15T21:55:25.507Z,11.50
2023-05-15T21:57:51.900Z,11.52
2023-05-15T22:00:18.573Z,11.63
2023-05-15T22:02:45.302Z,11.55
2023-05-15T22:05:12.016Z,11.54
2023-05-15T22:07:38.423Z,11.50
2023-05-15T22:10:05.419Z,11.36
2023-05-15T22:12:32.195Z,11.19
2023-05-15T22:14:59.721Z,11.24
2023-05-15T22:17:29.052Z,11.21
2023-05-15T22:20:02.564Z,11.08
2023-05-15T22:22:29.113Z,10.79
2023-05-15T22:24:55.885Z,10.68
2023-05-15T22:27:22.310Z,10.66
2023-05-15T22:29:48.758Z,10.46
2023-05-15T22:32:15.327Z,10.43
2023-05-15T22:34:41.732Z,10.47
2023-05-15T22:37:08.174Z,10.61
2023-05-15T22:39:34.820Z,10.73
2023-05-15T22:42:01.228Z,10.73
2023-05-15T22:44:28.405Z,10.61
2023-05-15T22:46:54.845Z,10.65
2023-05-15T22:49:25.296Z,10.71
2023-05-15T22:51:52.427Z,10.83
2023-05-15T22:54:21.936Z,10.95
2023-05-15T22:56:51.443Z,10.88
2023-05-15T22:59:18.346Z,10.70
2023-05-15T23:01:45.628Z,10.74
2023-05-15T23:04:12.677Z,10.71
2023-05-15T23:06:41.129Z,10.59
2023-05-15T23:09:08.418Z,10.46
2023-05-15T23:11:35.515Z,10.44
2023-05-15T23:14:02.886Z,10.32
2023-05-15T23:16:29.517Z,10.30
2023-05-15T23:18:57.556Z,10.23
2023-05-15T23:21:24.261Z,10.18
2023-05-15T23:23:50.782Z,10.11
2023-05-15T23:26:17.311Z,10.07
2023-05-15T23:28:43.771Z,9.81
2023-05-15T23:31:13.066Z,9.82
2023-05-15T23:33:39.813Z,9.92
2023-05-15T23:36:06.573Z,9.93
2023-05-15T23:38:33.103Z,9.72
2023-05-15T23:40:59.572Z,9.82
2023-05-15T23:43:26.254Z,9.83
2023-05-15T23:45:52.706Z,9.82
2023-05-15T23:48:19.250Z,9.80
2023-05-15T23:50:45.731Z,10.01
2023-05-15T23:53:12.140Z,9.89
2023-05-15T23:55:38.556Z,9.90
2023-05-15T23:58:05.063Z,9.72
